Terminal Aerodrome Forecast
Issued by NWS Albany, NY

Home | Current Version | Previous Version | Text Only | Print | Product List | Glossary On
Versions: 1 2 3 4 5 6 7 8 9 10 11 12 13 14 15 16 17 18
000
FTUS41 KALY 010700 AAA
TAFPOU
TAF AMD
KPOU 010756Z 0108/0206 VRB03KT P6SM SCT050 BKN070
     FM011900 29004KT P6SM VCSH BKN030 OVC080
     FM020200 03003KT 4SM -SN BR BKN025 OVC040
     FM020400 04005KT 2SM -SN BR SCT008 OVC012=

USA.gov is the U.S. government's official web portal to all federal, state and local government web resources and services.